Time;durP1;ratioP1;P1;durP2;ratioP2;P2;SDS_P1;SDS_P2;PMS_P1;PMS_P2;Temp;Humidity;BMP_temperature;BMP_pressure;BME280_temperature;BME280_humidity;BME280_pressure;Samples;Min_cycle;Max_cycle;Signal;HPM_P1;HPM_P2
2024/04/26 00:00:36;;;;;;;5.82;1.95;;;;;;;14.54;45.11;97626.84;5414634;26;20003;-46
2024/04/26 00:03:02;;;;;;;8.07;2.63;;;;;;;14.54;45.48;97622.34;5414602;26;20014;-47
2024/04/26 00:05:28;;;;;;;10.52;2.38;;;;;;;14.60;45.04;97610.03;5416296;26;20003;-46
2024/04/26 00:07:53;;;;;;;12.10;2.83;;;;;;;14.49;45.54;97614.41;5416297;26;20017;-47
2024/04/26 00:10:19;;;;;;;7.53;2.08;;;;;;;14.52;45.50;97613.91;5416317;26;20067;-46
2024/04/26 00:12:45;;;;;;;5.90;1.75;;;;;;;14.58;45.59;97610.28;5416166;26;20004;-47
2024/04/26 00:15:11;;;;;;;7.00;1.98;;;;;;;14.61;45.61;97610.81;5414381;26;20011;-47
2024/04/26 00:17:37;;;;;;;12.45;2.60;;;;;;;14.66;45.71;97613.50;5414420;26;20014;-46
2024/04/26 00:20:04;;;;;;;19.65;2.85;;;;;;;14.77;45.88;97610.69;5384792;26;20003;-46
2024/04/26 00:22:30;;;;;;;14.00;1.98;;;;;;;14.83;45.53;97613.34;5416092;26;20014;-47
2024/04/26 00:24:55;;;;;;;9.73;1.92;;;;;;;14.80;45.42;97612.03;5414222;26;20004;-47
2024/04/26 00:27:21;;;;;;;10.82;2.60;;;;;;;14.81;46.11;97610.16;5414213;26;20000;-46
2024/04/26 00:29:47;;;;;;;21.90;3.33;;;;;;;14.75;46.72;97609.38;5415840;26;20012;-47
2024/04/26 00:32:15;;;;;;;12.73;2.20;;;;;;;14.62;47.45;97607.16;5418428;26;20074;-46
2024/04/26 00:34:43;;;;;;;17.50;3.15;;;;;;;14.60;47.67;97607.38;5417722;26;19999;-46
2024/04/26 00:37:09;;;;;;;6.82;3.38;;;;;;;14.51;47.45;97601.75;5417154;26;20348;-47
2024/04/26 00:39:35;;;;;;;18.52;3.20;;;;;;;14.47;47.73;97605.16;5419368;26;20076;-46
2024/04/26 00:42:02;;;;;;;11.93;2.83;;;;;;;14.54;47.71;97606.50;5417416;26;20453;-47
2024/04/26 00:44:28;;;;;;;8.32;1.60;;;;;;;14.57;47.60;97608.69;5419165;26;20035;-47
2024/04/26 00:46:54;;;;;;;10.98;2.42;;;;;;;14.60;47.88;97609.25;5417342;26;20003;-46
2024/04/26 00:49:21;;;;;;;13.93;2.65;;;;;;;14.72;47.48;97601.94;5417275;26;20003;-46
2024/04/26 00:51:48;;;;;;;7.95;1.85;;;;;;;14.82;47.48;97611.78;5419070;26;20015;-47
2024/04/26 00:54:23;;;;;;;3.78;1.60;;;;;;;14.90;47.26;97609.44;5417511;26;20000;-46
2024/04/26 00:56:50;;;;;;;11.15;3.75;;;;;;;15.00;47.80;97614.00;5417149;26;20016;-46
2024/04/26 00:59:17;;;;;;;11.43;2.60;;;;;;;15.08;47.47;97604.81;5417228;26;19999;-47
2024/04/26 01:01:43;;;;;;;14.30;2.72;;;;;;;15.08;46.96;97618.00;5418963;26;20000;-47
2024/04/26 01:04:09;;;;;;;3.83;1.60;;;;;;;15.09;46.76;97614.31;5417239;26;20036;-47
2024/04/26 01:06:35;;;;;;;9.88;2.30;;;;;;;15.01;47.00;97615.59;5417174;26;20014;-46
2024/04/26 01:09:00;;;;;;;8.63;1.70;;;;;;;14.93;47.25;97610.78;5419093;26;20026;-46
2024/04/26 01:11:27;;;;;;;5.00;1.90;;;;;;;14.99;47.58;97612.44;5417021;26;20450;-47
2024/04/26 01:13:53;;;;;;;10.63;2.17;;;;;;;15.00;47.83;97614.00;5417062;26;20349;-47
2024/04/26 01:16:19;;;;;;;4.85;1.83;;;;;;;15.04;47.94;97616.94;5416894;26;20343;-47
2024/04/26 01:18:45;;;;;;;21.63;10.27;;;;;;;15.01;47.88;97612.16;5416875;26;20010;-47
2024/04/26 01:21:11;;;;;;;24.27;12.70;;;;;;;15.05;48.09;97608.75;5418660;26;20014;-47
2024/04/26 01:23:37;;;;;;;15.07;12.02;;;;;;;15.11;47.85;97612.19;5418643;26;20183;-47
2024/04/26 01:26:03;;;;;;;16.73;11.20;;;;;;;15.04;48.01;97617.72;5418560;26;20075;-46
2024/04/26 01:28:35;;;;;;;18.38;6.50;;;;;;;15.06;49.17;97604.25;5418547;26;20093;-46
2024/04/26 01:31:01;;;;;;;21.33;5.00;;;;;;;15.09;48.75;97607.19;5418635;26;20003;-46
2024/04/26 01:33:27;;;;;;;36.55;7.15;;;;;;;15.10;49.29;97607.97;5418572;26;20076;-47
2024/04/26 01:35:53;;;;;;;23.63;4.05;;;;;;;15.18;49.34;97610.13;5416595;26;20053;-47
2024/04/26 01:38:18;;;;;;;30.80;4.10;;;;;;;15.17;49.53;97614.63;5416449;26;20004;-47
2024/04/26 01:40:44;;;;;;;28.20;3.55;;;;;;;15.16;50.28;97597.19;5418325;26;20076;-46
2024/04/26 01:43:10;;;;;;;15.43;2.42;;;;;;;15.16;50.16;97606.97;5416330;26;20075;-46
2024/04/26 01:45:36;;;;;;;14.93;2.53;;;;;;;15.13;49.95;97610.91;5418297;26;20389;-46
2024/04/26 01:48:02;;;;;;;12.18;2.75;;;;;;;15.13;50.91;97610.91;5418241;26;20071;-47
2024/04/26 01:50:28;;;;;;;6.75;2.17;;;;;;;15.14;51.58;97591.34;5418450;26;19999;-47
2024/04/26 01:52:54;;;;;;;7.28;2.22;;;;;;;15.09;50.94;97601.09;5418148;26;20072;-46
2024/04/26 01:55:20;;;;;;;7.97;2.88;;;;;;;15.07;51.25;97604.00;5416425;26;19999;-46
2024/04/26 01:57:45;;;;;;;16.20;5.38;;;;;;;15.04;51.46;97607.16;5417926;26;19999;-46
2024/04/26 02:00:11;;;;;;;9.43;3.10;;;;;;;15.00;52.10;97607.94;5416288;26;20000;-47
2024/04/26 02:02:38;;;;;;;16.27;2.70;;;;;;;14.85;53.22;97593.56;5416276;26;20004;-46
2024/04/26 02:05:04;;;;;;;8.38;2.03;;;;;;;14.74;52.77;97602.47;5416394;26;19999;-46
2024/04/26 02:07:30;;;;;;;24.75;3.50;;;;;;;14.70;53.22;97596.09;5386716;26;20039;-46
2024/04/26 02:09:57;;;;;;;21.17;2.40;;;;;;;14.77;53.30;97596.69;5418066;26;20010;-46
2024/04/26 02:12:23;;;;;;;20.17;3.35;;;;;;;14.74;53.00;97595.34;5416216;26;19999;-47
2024/04/26 02:14:48;;;;;;;15.93;2.40;;;;;;;14.62;52.81;97601.88;5417945;26;20379;-47
2024/04/26 02:17:15;;;;;;;15.20;3.45;;;;;;;14.57;53.58;97598.13;5416071;26;19999;-46
2024/04/26 02:19:41;;;;;;;15.80;3.60;;;;;;;14.56;53.95;97593.88;5416174;26;20062;-46
2024/04/26 02:22:06;;;;;;;19.63;3.65;;;;;;;14.55;53.44;97597.56;5416024;26;20072;-47
2024/04/26 02:24:32;;;;;;;9.82;2.78;;;;;;;14.51;54.13;97601.75;5417776;26;20003;-46
2024/04/26 02:26:58;;;;;;;15.00;2.72;;;;;;;14.53;54.03;97596.22;5417736;26;20003;-46
2024/04/26 02:29:24;;;;;;;13.98;3.88;;;;;;;14.47;53.64;97595.41;5416116;26;20438;-46
2024/04/26 02:31:50;;;;;;;7.45;4.25;;;;;;;14.49;54.03;97603.06;5417666;26;20003;-46
2024/04/26 02:34:15;;;;;;;17.25;4.75;;;;;;;14.47;54.05;97602.53;5415958;26;19999;-46
2024/04/26 02:36:42;;;;;;;17.38;3.63;;;;;;;14.49;54.32;97595.16;5417271;26;20004;-47
2024/04/26 02:39:07;;;;;;;15.18;2.50;;;;;;;14.37;53.88;97597.94;5416033;26;20319;-46
2024/04/26 02:41:33;;;;;;;27.23;10.07;;;;;;;14.39;55.15;97603.78;5386192;26;20018;-47
2024/04/26 02:44:02;;;;;;;12.80;3.75;;;;;;;14.36;54.87;97601.63;5415827;26;20003;-46
2024/04/26 02:46:28;;;;;;;10.70;3.50;;;;;;;14.33;54.79;97604.78;5417601;26;20072;-47
2024/04/26 02:48:54;;;;;;;8.57;2.88;;;;;;;14.30;55.18;97603.41;5417480;26;20453;-46
2024/04/26 02:51:19;;;;;;;11.30;4.30;;;;;;;14.35;55.05;97597.41;5415559;26;20053;-47
2024/04/26 02:53:45;;;;;;;19.55;4.93;;;;;;;14.28;55.00;97610.00;5414401;26;19999;-46
2024/04/26 02:56:11;;;;;;;11.25;2.63;;;;;;;14.16;54.31;97604.88;5417314;26;20015;-46
2024/04/26 02:58:39;;;;;;;10.05;4.30;;;;;;;14.02;54.90;97603.69;5417318;26;20072;-46
2024/04/26 03:01:05;;;;;;;17.35;7.03;;;;;;;14.00;55.94;97614.47;5415451;26;20313;-46
2024/04/26 03:03:31;;;;;;;9.48;2.97;;;;;;;14.14;55.58;97615.69;5385920;26;19999;-46
2024/04/26 03:06:01;;;;;;;7.93;2.40;;;;;;;14.15;55.68;97604.09;5415495;26;20511;-46
2024/04/26 03:08:27;;;;;;;3.17;2.10;;;;;;;14.10;55.66;97616.44;5417202;26;20009;-46
2024/04/26 03:10:52;;;;;;;4.63;2.00;;;;;;;14.01;55.69;97615.31;5417151;26;20018;-46
2024/04/26 03:13:18;;;;;;;4.10;1.80;;;;;;;13.89;56.23;97610.16;5417182;26;19999;-46
2024/04/26 03:15:44;;;;;;;6.05;2.38;;;;;;;13.80;57.14;97617.69;5416941;26;20468;-47
2024/04/26 03:18:09;;;;;;;5.70;1.80;;;;;;;13.85;57.37;97622.25;5417024;26;20011;-46
2024/04/26 03:20:35;;;;;;;4.47;1.90;;;;;;;13.92;57.81;97615.75;5415198;26;20031;-46
2024/04/26 03:23:01;;;;;;;10.43;3.08;;;;;;;13.89;58.79;97618.88;5415232;26;20000;-46
2024/04/26 03:25:27;;;;;;;4.38;1.75;;;;;;;13.82;60.05;97628.81;5417029;26;20019;-46
2024/04/26 03:27:52;;;;;;;6.05;2.03;;;;;;;13.56;60.62;97623.25;5415232;26;20000;-46
2024/04/26 03:30:18;;;;;;;5.57;2.42;;;;;;;13.55;61.33;97626.13;5416899;26;20046;-46
2024/04/26 03:32:43;;;;;;;8.65;3.13;;;;;;;13.26;61.82;97623.66;5385570;26;20003;-46
2024/04/26 03:35:09;;;;;;;6.65;2.63;;;;;;;13.05;64.26;97624.41;5415107;26;20435;-46
2024/04/26 03:37:35;;;;;;;4.93;2.85;;;;;;;12.71;66.16;97621.78;5416528;26;19999;-46
2024/04/26 03:40:00;;;;;;;10.75;3.78;;;;;;;12.46;68.86;97615.09;5417089;26;19999;-46
2024/04/26 03:42:26;;;;;;;6.45;2.80;;;;;;;12.33;71.15;97615.41;5416954;26;20011;-46
2024/04/26 03:44:52;;;;;;;51.88;47.25;;;;;;;12.27;73.16;97616.34;5417413;26;20011;-46
2024/04/26 03:47:17;;;;;;;11.20;10.10;;;;;;;12.14;74.76;97614.81;5415161;26;20003;-46
2024/04/26 03:49:43;;;;;;;6.15;3.72;;;;;;;11.98;77.20;97611.13;5416597;26;20054;-46
2024/04/26 03:52:09;;;;;;;8.70;5.05;;;;;;;11.79;79.06;97598.16;5416535;26;20007;-45
2024/04/26 03:54:34;;;;;;;3.85;2.00;;;;;;;11.69;81.63;97618.97;5416508;26;20010;-45
2024/04/26 03:57:00;;;;;;;9.02;3.10;;;;;;;11.53;83.63;97614.44;5416339;26;20004;-45
2024/04/26 03:59:26;;;;;;;54.65;49.58;;;;;;;11.40;85.83;97618.94;5416451;26;20023;-45
2024/04/26 04:01:52;;;;;;;13.80;9.20;;;;;;;11.41;87.55;97614.50;5414618;26;19999;-44
2024/04/26 04:04:17;;;;;;;7.25;5.90;;;;;;;11.28;89.60;97605.00;5416478;26;20072;-44
2024/04/26 04:06:43;;;;;;;9.05;4.32;;;;;;;11.19;91.39;97614.28;5414205;26;20072;-44
2024/04/26 04:09:09;;;;;;;8.55;4.57;;;;;;;11.07;92.89;97619.56;5414473;26;20011;-44
2024/04/26 04:11:35;;;;;;;7.80;4.22;;;;;;;11.15;95.78;97615.78;5416136;26;20003;-44
2024/04/26 04:14:01;;;;;;;6.38;4.00;;;;;;;11.31;97.21;97616.91;5416286;26;20049;-44
2024/04/26 04:16:28;;;;;;;13.70;11.07;;;;;;;11.39;97.91;97611.28;5416181;26;19999;-44
2024/04/26 04:18:54;;;;;;;36.08;32.20;;;;;;;11.39;98.52;97622.59;5416192;26;20075;-44
2024/04/26 04:21:19;;;;;;;18.35;16.55;;;;;;;11.34;99.68;97619.06;5414365;26;20453;-44
2024/04/26 04:23:45;;;;;;;6.72;3.17;;;;;;;11.36;100.00;97624.88;5416008;26;20011;-44
2024/04/26 04:26:11;;;;;;;8.20;3.95;;;;;;;11.27;100.00;97623.63;5415950;26;20015;-44
2024/04/26 04:28:42;;;;;;;8.25;5.50;;;;;;;11.25;100.00;97620.44;5414171;26;20028;-44
2024/04/26 04:31:10;;;;;;;28.08;24.98;;;;;;;11.38;100.00;97620.19;5415988;26;20011;-44
2024/04/26 04:33:36;;;;;;;15.85;11.50;;;;;;;11.40;100.00;97624.19;5415951;26;20010;-44
2024/04/26 04:36:02;;;;;;;10.43;6.72;;;;;;;11.51;100.00;97624.38;5415710;26;20000;-44
2024/04/26 04:38:28;;;;;;;12.82;7.60;;;;;;;11.62;100.00;97633.28;5413974;26;20449;-44
2024/04/26 04:40:53;;;;;;;5.45;3.90;;;;;;;11.63;100.00;97632.25;5416047;26;19999;-44
2024/04/26 04:43:19;;;;;;;7.95;4.13;;;;;;;11.62;100.00;97626.19;5415810;26;20006;-44
2024/04/26 04:45:45;;;;;;;5.25;3.22;;;;;;;11.67;100.00;97636.00;5415695;26;20014;-44
2024/04/26 04:48:10;;;;;;;8.27;3.78;;;;;;;11.64;100.00;97639.09;5415724;26;20004;-44
2024/04/26 04:50:36;;;;;;;56.53;50.78;;;;;;;11.59;100.00;97637.97;5413677;26;20045;-44
2024/04/26 04:53:05;;;;;;;15.13;9.95;;;;;;;11.72;100.00;97636.13;5415537;26;20046;-44
2024/04/26 04:55:31;;;;;;;8.75;5.05;;;;;;;11.72;100.00;97636.91;5415463;26;20530;-44
2024/04/26 04:57:56;;;;;;;9.20;5.15;;;;;;;11.65;100.00;97641.50;5415464;26;20008;-44
2024/04/26 05:00:22;;;;;;;10.55;4.70;;;;;;;11.66;100.00;97645.72;5415416;26;20000;-44
2024/04/26 05:02:48;;;;;;;17.48;8.90;;;;;;;11.57;100.00;97645.28;5415316;26;20011;-44
2024/04/26 05:05:15;;;;;;;16.65;3.78;;;;;;;11.45;100.00;97643.69;5413458;26;20003;-44
2024/04/26 05:07:41;;;;;;;89.57;49.90;;;;;;;11.37;100.00;97644.88;5415208;26;19999;-44
2024/04/26 05:10:07;;;;;;;61.40;18.08;;;;;;;11.50;100.00;97646.44;5413452;26;20014;-44
2024/04/26 05:12:32;;;;;;;32.10;14.57;;;;;;;11.43;100.00;97643.97;5415434;26;19999;-44
2024/04/26 05:14:58;;;;;;;23.45;5.95;;;;;;;11.50;100.00;97651.69;5413414;26;20011;-44
2024/04/26 05:17:24;;;;;;;57.33;35.70;;;;;;;11.55;100.00;97651.78;5416371;26;20004;-44
2024/04/26 05:19:50;;;;;;;80.43;51.17;;;;;;;11.73;100.00;97654.28;5417224;26;20014;-44
2024/04/26 05:22:16;;;;;;;23.25;7.28;;;;;;;11.83;100.00;97645.81;5416898;26;20010;-44
2024/04/26 05:24:41;;;;;;;26.88;7.97;;;;;;;11.77;100.00;97657.22;5418718;26;20076;-44
2024/04/26 05:27:15;;;;;;;9.05;4.75;;;;;;;11.81;100.00;97653.09;5418661;26;20346;-44
2024/04/26 05:29:42;;;;;;;8.25;3.83;;;;;;;11.87;100.00;97654.00;5418705;26;20080;-44
2024/04/26 05:32:08;;;;;;;16.73;11.43;;;;;;;11.88;100.00;97659.03;5418526;26;20481;-44
2024/04/26 05:34:34;;;;;;;18.58;16.58;;;;;;;12.05;100.00;97658.31;5418435;26;20010;-44
2024/04/26 05:36:59;;;;;;;12.85;6.72;;;;;;;12.10;100.00;97653.16;5416393;26;20014;-44
2024/04/26 05:39:25;;;;;;;15.05;5.88;;;;;;;12.11;100.00;97652.94;5418505;26;20031;-45
2024/04/26 05:41:51;;;;;;;8.98;3.30;;;;;;;12.17;100.00;97662.50;5418441;26;20427;-45
2024/04/26 05:44:16;;;;;;;14.05;3.75;;;;;;;12.28;100.00;97658.22;5416614;26;20011;-45
2024/04/26 05:46:42;;;;;;;22.70;8.50;;;;;;;12.43;100.00;97662.94;5416474;26;20014;-45
2024/04/26 05:49:08;;;;;;;29.45;11.60;;;;;;;12.54;100.00;97669.97;5418432;26;19999;-45
2024/04/26 05:51:35;;;;;;;31.98;5.15;;;;;;;12.70;100.00;97667.59;5418330;26;20000;-45
2024/04/26 05:54:04;;;;;;;30.63;6.15;;;;;;;12.89;100.00;97666.31;5418297;26;20018;-45
2024/04/26 05:56:31;;;;;;;33.90;10.55;;;;;;;13.04;100.00;97668.38;5418059;26;20454;-45
2024/04/26 05:58:56;;;;;;;20.52;4.10;;;;;;;13.12;100.00;97667.97;5418214;26;20048;-46
2024/04/26 06:01:22;;;;;;;25.75;10.85;;;;;;;13.28;100.00;97668.16;5416381;26;20330;-46
2024/04/26 06:03:48;;;;;;;16.30;5.43;;;;;;;13.32;100.00;97675.41;5416350;26;20010;-46
2024/04/26 06:06:14;;;;;;;4.50;1.80;;;;;;;13.24;100.00;97675.78;5417982;26;20337;-46
2024/04/26 06:08:40;;;;;;;14.73;3.08;;;;;;;13.18;100.00;97674.91;5418104;26;20036;-46
2024/04/26 06:11:06;;;;;;;7.35;1.98;;;;;;;13.25;100.00;97674.72;5386603;26;19999;-45
2024/04/26 06:13:33;;;;;;;14.05;2.72;;;;;;;13.29;100.00;97675.88;5417937;26;20073;-46
2024/04/26 06:15:59;;;;;;;12.02;4.97;;;;;;;13.34;100.00;97689.13;5418026;26;20663;-46
2024/04/26 06:18:25;;;;;;;13.70;4.97;;;;;;;13.30;100.00;97681.94;5417980;26;20003;-46
2024/04/26 06:20:50;;;;;;;8.52;3.47;;;;;;;13.39;100.00;97694.44;5416135;26;20102;-46
2024/04/26 06:23:16;;;;;;;6.70;2.40;;;;;;;13.45;100.00;97694.53;5417799;26;20004;-46
2024/04/26 06:25:42;;;;;;;7.68;2.40;;;;;;;13.48;100.00;97689.59;5417756;26;20465;-46
2024/04/26 06:28:07;;;;;;;8.18;5.05;;;;;;;13.48;100.00;97697.50;5417911;26;20076;-46
2024/04/26 06:30:33;;;;;;;10.93;2.78;;;;;;;13.52;100.00;97697.78;5415913;26;20014;-46
2024/04/26 06:33:00;;;;;;;9.40;2.70;;;;;;;13.64;100.00;97698.47;5415902;26;19999;-46
2024/04/26 06:35:25;;;;;;;8.10;1.77;;;;;;;13.66;100.00;97688.50;5417725;26;20004;-46
2024/04/26 06:37:51;;;;;;;13.93;5.60;;;;;;;13.75;100.00;97694.13;5417600;26;20015;-46
2024/04/26 06:40:17;;;;;;;8.15;3.72;;;;;;;13.80;100.00;97702.09;5416021;26;20003;-46
2024/04/26 06:42:42;;;;;;;13.43;3.45;;;;;;;13.88;100.00;97703.50;5386560;26;20000;-46
2024/04/26 06:45:08;;;;;;;6.30;2.63;;;;;;;13.98;100.00;97706.25;5417929;26;20004;-46
2024/04/26 06:47:34;;;;;;;10.45;2.97;;;;;;;14.08;100.00;97705.59;5415997;26;20000;-46
2024/04/26 06:50:00;;;;;;;7.43;1.60;;;;;;;14.11;100.00;97713.03;5416081;26;20057;-46
2024/04/26 06:52:25;;;;;;;7.40;2.92;;;;;;;14.18;100.00;97711.78;5417333;26;20010;-46
2024/04/26 06:54:51;;;;;;;4.88;1.70;;;;;;;14.24;100.00;97712.63;5417380;26;20349;-46
2024/04/26 06:57:17;;;;;;;6.15;1.63;;;;;;;14.25;100.00;97713.44;5415461;26;20508;-46
2024/04/26 06:59:42;;;;;;;13.15;3.78;;;;;;;14.22;100.00;97711.28;5417433;26;20000;-46
2024/04/26 07:02:08;;;;;;;4.13;2.42;;;;;;;14.25;100.00;97718.72;5417357;26;19999;-46
2024/04/26 07:04:34;;;;;;;11.27;3.58;;;;;;;14.29;100.00;97720.59;5415502;26;20000;-46
2024/04/26 07:06:59;;;;;;;4.57;1.65;;;;;;;14.44;100.00;97721.81;5415349;26;20080;-46
2024/04/26 07:09:25;;;;;;;6.22;1.90;;;;;;;14.47;100.00;97722.09;5417235;26;20003;-46
2024/04/26 07:11:51;;;;;;;5.20;1.70;;;;;;;14.40;100.00;97724.13;5415506;26;19999;-46
2024/04/26 07:14:17;;;;;;;5.75;1.55;;;;;;;14.45;100.00;97726.06;5415333;26;20045;-47
2024/04/26 07:16:43;;;;;;;3.55;1.48;;;;;;;14.44;100.00;97722.59;5416993;26;20000;-46
2024/04/26 07:19:09;;;;;;;4.97;1.70;;;;;;;14.42;100.00;97726.53;5415303;26;20449;-46
2024/04/26 07:21:35;;;;;;;10.52;1.40;;;;;;;14.37;100.00;97735.22;5415178;26;20008;-46
2024/04/26 07:24:01;;;;;;;5.70;2.53;;;;;;;14.30;100.00;97729.31;5417126;26;20004;-46
2024/04/26 07:26:32;;;;;;;9.98;2.38;;;;;;;14.31;100.00;97733.56;5416910;26;20011;-46
2024/04/26 07:29:00;;;;;;;6.60;2.42;;;;;;;14.28;100.00;97734.03;5416970;26;20003;-46
2024/04/26 07:31:28;;;;;;;10.65;3.40;;;;;;;14.32;100.00;97735.13;5416926;26;20335;-46
2024/04/26 07:33:54;;;;;;;15.13;3.42;;;;;;;14.18;100.00;97727.63;5416999;26;20043;-46
2024/04/26 07:36:19;;;;;;;9.85;5.20;;;;;;;14.05;100.00;97735.91;5416701;26;20004;-46
2024/04/26 07:38:45;;;;;;;17.27;15.63;;;;;;;13.92;100.00;97734.44;5416650;26;20017;-46
2024/04/26 07:41:15;;;;;;;16.25;12.68;;;;;;;13.87;100.00;97744.13;5416041;26;20029;-46
2024/04/26 07:43:44;;;;;;;18.25;11.30;;;;;;;13.76;100.00;97744.00;5416699;26;20000;-46
2024/04/26 07:46:10;;;;;;;10.25;2.95;;;;;;;13.72;100.00;97742.91;5416636;26;20051;-46
2024/04/26 07:48:36;;;;;;;12.13;8.10;;;;;;;13.71;100.00;97743.13;5416576;26;20003;-46
2024/04/26 07:51:01;;;;;;;4.32;2.75;;;;;;;13.75;100.00;97746.88;5416599;26;20006;-46
2024/04/26 07:53:27;;;;;;;6.07;3.65;;;;;;;13.90;100.00;97739.13;5416533;26;19999;-46
2024/04/26 07:55:53;;;;;;;9.35;1.77;;;;;;;14.00;100.00;97746.38;5416569;26;20361;-46
2024/04/26 07:58:20;;;;;;;10.75;5.10;;;;;;;14.11;100.00;97745.47;5416651;26;20016;-46
2024/04/26 08:00:45;;;;;;;13.15;5.95;;;;;;;14.30;100.00;97751.22;5416463;26;20007;-47
2024/04/26 08:03:11;;;;;;;8.82;7.30;;;;;;;14.48;100.00;97736.88;5414552;26;19999;-47
2024/04/26 08:05:37;;;;;;;11.98;10.70;;;;;;;14.64;100.00;97737.88;5416414;26;20014;-47
2024/04/26 08:08:03;;;;;;;36.58;33.55;;;;;;;14.96;100.00;97735.25;5414647;26;20450;-46
2024/04/26 08:10:28;;;;;;;6.50;5.57;;;;;;;15.36;99.91;97736.59;5414414;26;20330;-47
2024/04/26 08:12:54;;;;;;;7.50;3.92;;;;;;;15.62;95.73;97731.47;5416358;26;20050;-47
2024/04/26 08:15:20;;;;;;;15.65;2.83;;;;;;;15.79;94.49;97736.59;5416169;26;20350;-47
2024/04/26 08:17:46;;;;;;;5.00;1.77;;;;;;;15.93;93.89;97736.94;5416000;26;19999;-47
2024/04/26 08:20:13;;;;;;;8.73;2.58;;;;;;;15.98;94.24;97736.97;5416066;26;20011;-46
2024/04/26 08:22:40;;;;;;;3.17;1.65;;;;;;;16.13;93.52;97736.22;5416165;26;20049;-47
2024/04/26 08:25:06;;;;;;;2.25;1.38;;;;;;;16.01;88.58;97733.78;5415989;26;20014;-47
2024/04/26 08:27:31;;;;;;;10.77;3.00;;;;;;;15.89;92.83;97738.50;5414424;26;20353;-46
2024/04/26 08:29:57;;;;;;;5.90;3.38;;;;;;;15.86;90.38;97741.69;5414173;26;20456;-46
2024/04/26 08:32:25;;;;;;;4.72;3.08;;;;;;;15.81;93.49;97745.06;5415886;26;20015;-46
2024/04/26 08:34:52;;;;;;;3.85;1.70;;;;;;;15.62;88.56;97733.31;5415979;26;20072;-46
2024/04/26 08:37:19;;;;;;;3.65;2.50;;;;;;;15.39;87.63;97748.50;5415450;26;20068;-46
2024/04/26 08:39:46;;;;;;;6.47;4.47;;;;;;;15.10;87.95;97755.97;5414185;26;20017;-46
2024/04/26 08:42:12;;;;;;;6.03;2.00;;;;;;;15.19;92.63;97757.09;5415693;26;20556;-46
2024/04/26 08:44:42;;;;;;;4.70;1.85;;;;;;;15.38;96.16;97763.56;5413944;26;20011;-46
2024/04/26 08:47:12;;;;;;;5.13;1.90;;;;;;;15.52;91.64;97753.34;5415717;26;20014;-46
2024/04/26 08:49:43;;;;;;;5.10;1.40;;;;;;;15.75;92.09;97759.34;5413952;26;19999;-46
2024/04/26 08:52:11;;;;;;;1.48;1.38;;;;;;;16.08;91.50;97752.88;5416518;26;20004;-46
2024/04/26 08:54:37;;;;;;;3.83;1.63;;;;;;;16.54;92.88;97758.31;5419086;26;19999;-46
2024/04/26 08:57:03;;;;;;;2.38;1.50;;;;;;;16.97;89.82;97777.47;5418932;26;20080;-46
2024/04/26 08:59:43;;;;;;;4.90;3.63;;;;;;;17.15;83.54;97764.78;5417260;26;20014;-46
2024/04/26 09:02:10;;;;;;;8.15;4.25;;;;;;;17.16;82.89;97766.34;5418991;26;19999;-46
2024/04/26 09:04:36;;;;;;;5.25;1.75;;;;;;;16.93;81.87;97763.16;5419121;26;20076;-46
2024/04/26 09:07:03;;;;;;;2.92;1.90;;;;;;;16.64;83.72;97781.38;5418929;26;20011;-46
2024/04/26 09:09:28;;;;;;;3.95;2.35;;;;;;;16.40;81.79;97781.06;5418954;26;20035;-46
2024/04/26 09:12:01;;;;;;;3.40;2.70;;;;;;;16.34;84.36;97774.94;5417110;26;20003;-46
2024/04/26 09:14:27;;;;;;;6.80;4.53;;;;;;;16.09;81.85;97778.28;5417146;26;20014;-46
2024/04/26 09:16:53;;;;;;;4.78;1.48;;;;;;;15.96;83.19;97768.97;5418751;26;20014;-46
2024/04/26 09:19:18;;;;;;;10.68;9.68;;;;;;;15.88;83.05;97782.69;5418700;26;20371;-46
2024/04/26 09:21:44;;;;;;;6.32;3.08;;;;;;;15.82;83.41;97775.00;5416997;26;20014;-46
2024/04/26 09:24:13;;;;;;;4.05;1.85;;;;;;;15.63;81.81;97767.44;5419019;26;19995;-46
2024/04/26 09:26:38;;;;;;;5.85;2.40;;;;;;;15.60;83.31;97785.69;5418632;26;20015;-47
2024/04/26 09:29:04;;;;;;;3.97;3.03;;;;;;;15.83;83.43;97779.22;5387319;26;19999;-46
2024/04/26 09:31:30;;;;;;;3.47;1.60;;;;;;;16.13;83.23;97776.72;5418734;26;20446;-46
2024/04/26 09:33:56;;;;;;;4.15;1.58;;;;;;;16.54;81.18;97779.50;5418775;26;20000;-46
2024/04/26 09:36:27;;;;;;;5.07;1.55;;;;;;;16.91;79.71;97780.41;5418611;26;20044;-46
2024/04/26 09:38:57;;;;;;;5.60;3.45;;;;;;;16.74;74.45;97780.59;5383124;26;20014;-47
2024/04/26 09:41:23;;;;;;;3.17;1.00;;;;;;;16.47;72.87;97789.53;5382988;26;20001;-47
2024/04/26 09:43:50;;;;;;;1.63;1.30;;;;;;;16.07;71.87;97792.84;5383012;26;20073;-47
2024/04/26 09:46:20;;;;;;;2.92;1.80;;;;;;;15.84;77.93;97783.47;5381204;26;20442;-47
2024/04/26 09:48:47;;;;;;;4.85;1.48;;;;;;;16.05;80.02;97782.50;5383372;26;20197;-46
2024/04/26 09:51:15;;;;;;;3.55;1.45;;;;;;;16.42;82.77;97778.94;5381000;26;20000;-46
2024/04/26 09:53:45;;;;;;;3.05;1.58;;;;;;;16.39;74.65;97782.09;5382853;26;20455;-46
2024/04/26 09:56:11;;;;;;;3.25;1.58;;;;;;;16.37;74.85;97781.56;5380914;26;20324;-46
2024/04/26 09:58:37;;;;;;;2.63;1.40;;;;;;;16.37;75.12;97784.22;5382761;26;20000;-46
2024/04/26 10:01:06;;;;;;;2.65;1.27;;;;;;;16.59;74.67;97784.00;5382817;26;20045;-47
2024/04/26 10:03:36;;;;;;;3.90;1.60;;;;;;;16.57;73.62;97776.31;5382479;26;20008;-47
2024/04/26 10:06:03;;;;;;;3.75;1.40;;;;;;;16.46;73.29;97792.44;5382672;26;20014;-46
2024/04/26 10:08:36;;;;;;;3.15;1.30;;;;;;;16.29;68.91;97782.88;5382613;26;20020;-47
2024/04/26 10:11:08;;;;;;;3.53;1.48;;;;;;;16.07;66.37;97783.03;5380773;26;20513;-47
2024/04/26 10:13:46;;;;;;;2.60;1.20;;;;;;;16.01;65.84;97781.44;5382698;26;20000;-47
2024/04/26 10:16:12;;;;;;;4.82;1.92;;;;;;;15.91;68.13;97781.38;5382333;26;20073;-47
2024/04/26 10:18:38;;;;;;;3.38;1.60;;;;;;;16.27;67.72;97773.59;5382649;26;20040;-47
2024/04/26 10:21:05;;;;;;;6.10;1.48;;;;;;;16.74;66.07;97781.41;5380643;26;20028;-46
2024/04/26 10:23:33;;;;;;;3.10;1.30;;;;;;;17.47;62.01;97790.22;5382340;26;20008;-47
2024/04/26 10:26:09;;;;;;;6.07;1.35;;;;;;;18.12;63.95;97772.56;5380502;26;20481;-46
2024/04/26 10:28:38;;;;;;;2.50;1.27;;;;;;;18.55;61.62;97778.22;5380651;26;20004;-47
2024/04/26 10:31:05;;;;;;;2.33;1.50;;;;;;;18.63;60.84;97771.50;5382225;26;20004;-47
2024/04/26 10:33:34;;;;;;;8.35;1.58;;;;;;;18.54;59.41;97765.97;5382336;26;20004;-47
2024/04/26 10:36:05;;;;;;;1.08;0.85;;;;;;;18.42;55.55;97765.50;5382079;26;20000;-47
2024/04/26 10:38:51;;;;;;;2.38;1.55;;;;;;;18.08;54.08;97747.59;5413115;26;20354;-47
2024/04/26 10:41:20;;;;;;;1.95;1.27;;;;;;;17.94;52.27;97763.31;5417389;26;20011;-47
2024/04/26 10:43:47;;;;;;;3.55;1.20;;;;;;;18.00;52.13;97765.97;5417661;26;20019;-47
2024/04/26 10:46:19;;;;;;;4.63;1.20;;;;;;;17.72;52.62;97766.28;5417505;26;20079;-47
2024/04/26 10:48:45;;;;;;;4.57;1.30;;;;;;;17.70;54.36;97762.31;5415744;26;20000;-46
2024/04/26 10:51:12;;;;;;;3.03;1.20;;;;;;;17.76;54.89;97755.91;5417448;26;20010;-47
2024/04/26 10:53:43;;;;;;;2.50;1.48;;;;;;;17.77;52.44;97757.53;5417469;26;20000;-47
2024/04/26 10:56:18;;;;;;;2.55;1.00;;;;;;;17.78;53.73;97751.13;5417493;26;20358;-47
2024/04/26 10:58:45;;;;;;;2.63;1.27;;;;;;;17.78;52.71;97746.63;5417498;26;20003;-46
2024/04/26 11:01:22;;;;;;;3.38;1.48;;;;;;;17.86;55.40;97755.91;5417340;26;20014;-46
2024/04/26 11:03:50;;;;;;;5.43;2.05;;;;;;;17.91;53.21;97741.84;5417378;26;20022;-46
2024/04/26 11:06:35;;;;;;;1.65;1.20;;;;;;;17.70;50.58;97757.78;5417190;26;20076;-47
2024/04/26 11:09:07;;;;;;;4.05;1.48;;;;;;;17.21;52.34;97757.63;5417461;26;20450;-47
2024/04/26 11:11:33;;;;;;;5.70;1.33;;;;;;;17.07;54.04;97726.31;5417252;26;20000;-46
2024/04/26 11:13:59;;;;;;;3.53;1.90;;;;;;;17.19;55.28;97749.13;5415173;26;20341;-46
2024/04/26 11:16:24;;;;;;;4.72;1.50;;;;;;;17.39;53.86;97727.88;5416184;26;20000;-46
2024/04/26 11:18:50;;;;;;;4.50;2.15;;;;;;;17.33;54.00;97748.31;5415356;26;20004;-47
2024/04/26 11:21:15;;;;;;;9.23;1.50;;;;;;;17.22;53.11;97717.56;5416950;26;20499;-47
2024/04/26 11:23:42;;;;;;;1.90;1.20;;;;;;;16.91;55.03;97751.25;5416983;26;20457;-47